Time;durP1;ratioP1;P1;durP2;ratioP2;P2;SDS_P1;SDS_P2;PMS_P1;PMS_P2;Temp;Humidity;BMP_temperature;BMP_pressure;BME280_temperature;BME280_humidity;BME280_pressure;Samples;Min_cycle;Max_cycle;Signal;HPM_P1;HPM_P2
2023/09/29 00:01:34;;;;;;;11.93;6.45;;;;;;;;;;4933961;29;20115;-58
2023/09/29 00:04:01;;;;;;;10.02;6.82;;;;;;;;;;4926230;29;20028;-59
2023/09/29 00:06:26;;;;;;;13.05;6.63;;;;;;;;;;4897746;29;20032;-58
2023/09/29 00:08:51;;;;;;;11.63;6.68;;;;;;;;;;4916105;29;20385;-57
2023/09/29 00:11:17;;;;;;;9.20;6.18;;;;;;;;;;4933460;29;20118;-56
2023/09/29 00:13:42;;;;;;;9.23;6.15;;;;;;;;;;4934638;29;20035;-57
2023/09/29 00:16:08;;;;;;;12.65;6.72;;;;;;;;;;4935991;29;20115;-57
2023/09/29 00:18:33;;;;;;;10.15;6.30;;;;;;;;;;4934041;29;20707;-58
2023/09/29 00:20:59;;;;;;;11.85;6.40;;;;;;;;;;4913935;29;20195;-57
2023/09/29 00:23:24;;;;;;;10.90;5.90;;;;;;;;;;4932694;29;20031;-58
2023/09/29 00:25:50;;;;;;;9.05;5.72;;;;;;;;;;4933492;29;20039;-57
2023/09/29 00:28:16;;;;;;;9.75;5.97;;;;;;;;;;4934280;29;20028;-57
2023/09/29 00:30:41;;;;;;;11.27;6.13;;;;;;;;;;4934782;29;20140;-56
2023/09/29 00:33:06;;;;;;;8.82;5.72;;;;;;;;;;4929090;29;20059;-56
2023/09/29 00:35:33;;;;;;;9.90;5.68;;;;;;;;;;4931936;29;20034;-58
2023/09/29 00:37:59;;;;;;;10.73;5.72;;;;;;;;;;4933465;29;20035;-57
2023/09/29 00:40:25;;;;;;;8.98;5.65;;;;;;;;;;4933068;29;20107;-58
2023/09/29 00:42:52;;;;;;;12.20;6.40;;;;;;;;;;4935894;29;20039;-59
2023/09/29 00:45:22;;;;;;;9.68;6.25;;;;;;;;;;4933378;29;20070;-58
2023/09/29 00:47:50;;;;;;;11.48;6.18;;;;;;;;;;4914077;29;20416;-58
2023/09/29 00:50:18;;;;;;;10.45;5.78;;;;;;;;;;4933708;29;20066;-58
2023/09/29 00:52:50;;;;;;;9.52;5.70;;;;;;;;;;4933407;29;20051;-58
2023/09/29 00:55:22;;;;;;;9.18;5.88;;;;;;;;;;4932393;29;20096;-57
2023/09/29 00:57:50;;;;;;;10.43;5.90;;;;;;;;;;4915983;29;20047;-57
2023/09/29 01:00:30;;;;;;;9.65;5.70;;;;;;;;;;4932467;29;20088;-59
2023/09/29 01:02:59;;;;;;;8.20;5.60;;;;;;;;;;4922497;29;20027;-57
2023/09/29 01:05:25;;;;;;;9.23;5.40;;;;;;;;;;4931310;29;20040;-57
2023/09/29 01:07:51;;;;;;;9.63;5.72;;;;;;;;;;4932807;29;20054;-58
2023/09/29 01:10:19;;;;;;;9.13;5.75;;;;;;;;;;4933429;29;20099;-56
2023/09/29 01:12:45;;;;;;;9.88;5.35;;;;;;;;;;4933000;29;20035;-57
2023/09/29 01:15:14;;;;;;;12.10;5.78;;;;;;;;;;4934769;29;20032;-58
2023/09/29 01:17:41;;;;;;;9.73;5.57;;;;;;;;;;4933442;29;20031;-57
2023/09/29 01:20:15;;;;;;;8.40;5.00;;;;;;;;;;4937209;29;20043;-58
2023/09/29 01:22:45;;;;;;;8.98;4.97;;;;;;;;;;4930404;29;20911;-57
2023/09/29 01:25:11;;;;;;;7.60;4.88;;;;;;;;;;4918030;29;20063;-57
2023/09/29 01:27:37;;;;;;;7.78;4.82;;;;;;;;;;4934588;29;20067;-57
2023/09/29 01:30:03;;;;;;;9.55;5.50;;;;;;;;;;4936594;29;20032;-57
2023/09/29 01:32:29;;;;;;;7.68;4.47;;;;;;;;;;4936522;29;20464;-57
2023/09/29 01:34:57;;;;;;;7.07;4.53;;;;;;;;;;4932430;29;20079;-58
2023/09/29 01:37:23;;;;;;;8.60;4.85;;;;;;;;;;4934867;29;20039;-59
2023/09/29 01:39:48;;;;;;;7.82;4.68;;;;;;;;;;4936212;29;20032;-58
2023/09/29 01:42:13;;;;;;;7.05;4.53;;;;;;;;;;4937048;29;20087;-59
2023/09/29 01:44:39;;;;;;;7.80;4.90;;;;;;;;;;4936120;29;20622;-58
2023/09/29 01:47:04;;;;;;;8.52;4.78;;;;;;;;;;4934107;29;20078;-58
2023/09/29 01:49:30;;;;;;;6.50;4.63;;;;;;;;;;4935538;29;20456;-58
2023/09/29 01:51:55;;;;;;;9.18;4.80;;;;;;;;;;4933038;29;20115;-59
2023/09/29 01:54:21;;;;;;;6.95;4.30;;;;;;;;;;4935336;29;20385;-59
2023/09/29 01:56:46;;;;;;;7.38;3.90;;;;;;;;;;4946492;29;20031;-58
2023/09/29 01:59:12;;;;;;;8.65;4.63;;;;;;;;;;4938019;29;20028;-59
2023/09/29 02:01:38;;;;;;;7.10;4.07;;;;;;;;;;4938464;29;20037;-59
2023/09/29 02:04:04;;;;;;;6.88;3.92;;;;;;;;;;4937224;29;20089;-59
2023/09/29 02:06:30;;;;;;;5.85;4.15;;;;;;;;;;4932774;29;20036;-58
2023/09/29 02:08:57;;;;;;;8.90;4.38;;;;;;;;;;4935088;29;20499;-57
2023/09/29 02:11:23;;;;;;;7.03;4.05;;;;;;;;;;4915700;29;20481;-57
2023/09/29 02:13:48;;;;;;;9.45;4.40;;;;;;;;;;4915446;29;20084;-58
2023/09/29 02:16:17;;;;;;;5.75;4.20;;;;;;;;;;4927541;29;20091;-57
2023/09/29 02:18:42;;;;;;;7.75;4.05;;;;;;;;;;4935741;29;20103;-59
2023/09/29 02:21:08;;;;;;;10.80;4.35;;;;;;;;;;4931044;29;20123;-59
2023/09/29 02:23:34;;;;;;;7.82;4.07;;;;;;;;;;4926196;29;20044;-60
2023/09/29 02:26:00;;;;;;;7.43;4.30;;;;;;;;;;4890070;29;20063;-59
2023/09/29 02:28:30;;;;;;;8.07;3.88;;;;;;;;;;4927182;29;20114;-58
2023/09/29 02:30:57;;;;;;;;;;;;;;;;;;4918817;29;20031;-59
2023/09/29 02:33:25;;;;;;;6.88;4.00;;;;;;;;;;4935785;29;19981;-58
2023/09/29 02:35:50;;;;;;;8.30;4.00;;;;;;;;;;4934679;29;20040;-58
2023/09/29 02:38:16;;;;;;;7.53;4.30;;;;;;;;;;4925253;29;20447;-59
2023/09/29 02:40:42;;;;;;;6.97;3.95;;;;;;;;;;4925715;29;20174;-59
2023/09/29 02:43:09;;;;;;;7.32;4.10;;;;;;;;;;4921402;29;20046;-58
2023/09/29 02:45:37;;;;;;;10.88;4.50;;;;;;;;;;4925491;29;20485;-58
2023/09/29 02:48:03;;;;;;;8.05;4.25;;;;;;;;;;4917699;29;20066;-58
2023/09/29 02:50:29;;;;;;;7.50;4.00;;;;;;;;;;4932651;29;20063;-58
2023/09/29 02:52:54;;;;;;;6.88;4.20;;;;;;;;;;4927309;29;20044;-58
2023/09/29 02:55:20;;;;;;;8.30;4.65;;;;;;;;;;4916769;29;20032;-58
2023/09/29 02:57:46;;;;;;;11.23;4.57;;;;;;;;;;4925064;29;20028;-59
2023/09/29 03:00:18;;;;;;;6.72;4.30;;;;;;;;;;4918259;29;20473;-59
2023/09/29 03:02:43;;;;;;;7.57;4.78;;;;;;;;;;4913836;29;20115;-58
2023/09/29 03:05:09;;;;;;;6.93;4.47;;;;;;;;;;4926366;29;20167;-58
2023/09/29 03:07:37;;;;;;;7.07;4.38;;;;;;;;;;4913049;29;20396;-59
2023/09/29 03:10:05;;;;;;;7.68;4.70;;;;;;;;;;4916568;29;20048;-59
2023/09/29 03:12:31;;;;;;;8.00;4.60;;;;;;;;;;4915294;29;20032;-59
2023/09/29 03:14:57;;;;;;;7.93;4.30;;;;;;;;;;4915823;29;20035;-58
2023/09/29 03:17:22;;;;;;;6.28;4.05;;;;;;;;;;4914036;29;20084;-59
2023/09/29 03:19:48;;;;;;;7.80;4.68;;;;;;;;;;4914710;29;20028;-59
2023/09/29 03:22:14;;;;;;;7.03;4.28;;;;;;;;;;4916145;29;20519;-59
2023/09/29 03:24:40;;;;;;;7.55;3.90;;;;;;;;;;4914536;29;20029;-58
2023/09/29 03:27:05;;;;;;;8.70;4.20;;;;;;;;;;4916025;29;20043;-60
2023/09/29 03:29:31;;;;;;;7.53;4.20;;;;;;;;;;4905248;29;20037;-60
2023/09/29 03:31:56;;;;;;;8.43;4.50;;;;;;;;;;4912061;29;20039;-59
2023/09/29 03:34:23;;;;;;;6.60;3.90;;;;;;;;;;4913695;29;20059;-59
2023/09/29 03:36:50;;;;;;;7.07;4.10;;;;;;;;;;4913149;29;20810;-61
2023/09/29 03:39:17;;;;;;;5.85;3.75;;;;;;;;;;4915106;29;20457;-59
2023/09/29 03:41:43;;;;;;;6.20;3.80;;;;;;;;;;4913879;29;20036;-58
2023/09/29 03:44:09;;;;;;;7.00;4.05;;;;;;;;;;4915221;29;20077;-59
2023/09/29 03:46:34;;;;;;;7.25;3.63;;;;;;;;;;4912913;29;20058;-58
2023/09/29 03:48:59;;;;;;;6.57;3.45;;;;;;;;;;4913326;29;20028;-58
2023/09/29 03:51:26;;;;;;;5.57;3.38;;;;;;;;;;4917368;29;20533;-58
2023/09/29 03:53:52;;;;;;;8.13;3.30;;;;;;;;;;4914907;29;20506;-59
2023/09/29 03:56:18;;;;;;;6.35;3.42;;;;;;;;;;4914625;29;20500;-59
2023/09/29 03:58:44;;;;;;;5.80;3.38;;;;;;;;;;4912762;29;20044;-60
2023/09/29 04:01:10;;;;;;;5.35;3.30;;;;;;;;;;4912746;29;20082;-59
2023/09/29 04:03:35;;;;;;;7.13;3.55;;;;;;;;;;4912133;29;20438;-59
2023/09/29 04:06:00;;;;;;;8.05;3.38;;;;;;;;;;4912853;29;20119;-59
2023/09/29 04:08:26;;;;;;;5.30;3.20;;;;;;;;;;4898865;29;20036;-59
2023/09/29 04:10:53;;;;;;;6.40;3.20;;;;;;;;;;4928355;29;20071;-58
2023/09/29 04:13:19;;;;;;;4.97;3.13;;;;;;;;;;4933245;29;20039;-59
2023/09/29 04:15:44;;;;;;;5.95;3.33;;;;;;;;;;4914586;29;20035;-58
2023/09/29 04:18:10;;;;;;;5.32;3.33;;;;;;;;;;4932597;29;20103;-59
2023/09/29 04:20:35;;;;;;;6.50;3.40;;;;;;;;;;4932614;29;20032;-59
2023/09/29 04:23:01;;;;;;;7.07;3.58;;;;;;;;;;4934293;29;20107;-58
2023/09/29 04:25:26;;;;;;;6.13;3.50;;;;;;;;;;4933446;29;20119;-58
2023/09/29 04:27:51;;;;;;;5.47;3.22;;;;;;;;;;4912181;29;20063;-57
2023/09/29 04:30:17;;;;;;;6.28;3.70;;;;;;;;;;4932456;29;20536;-60
2023/09/29 04:32:42;;;;;;;5.45;3.42;;;;;;;;;;4933103;29;20038;-58
2023/09/29 04:35:08;;;;;;;7.47;3.65;;;;;;;;;;4934186;29;20036;-59
2023/09/29 04:37:33;;;;;;;5.38;3.30;;;;;;;;;;4931419;29;20047;-60
2023/09/29 04:39:59;;;;;;;7.15;3.75;;;;;;;;;;4933704;29;20028;-59
2023/09/29 04:42:24;;;;;;;7.82;3.78;;;;;;;;;;4933407;29;20027;-60
2023/09/29 04:44:50;;;;;;;5.63;3.60;;;;;;;;;;4935296;29;20117;-59
2023/09/29 04:47:15;;;;;;;9.40;3.70;;;;;;;;;;4932364;29;20064;-58
2023/09/29 04:49:41;;;;;;;5.93;4.03;;;;;;;;;;4935027;29;20477;-60
2023/09/29 04:52:07;;;;;;;7.07;4.13;;;;;;;;;;4937004;29;20081;-59
2023/09/29 04:54:32;;;;;;;5.97;4.18;;;;;;;;;;4936500;29;20036;-59
2023/09/29 04:56:57;;;;;;;6.57;4.03;;;;;;;;;;4935904;29;20411;-58
2023/09/29 04:59:23;;;;;;;6.25;4.30;;;;;;;;;;4932827;29;20055;-59
2023/09/29 05:01:48;;;;;;;9.65;4.50;;;;;;;;;;4935223;29;20486;-60
2023/09/29 05:04:14;;;;;;;7.05;4.53;;;;;;;;;;4934003;29;20516;-58
2023/09/29 05:06:39;;;;;;;8.00;4.80;;;;;;;;;;4918243;29;20031;-63
2023/09/29 05:09:05;;;;;;;7.70;4.55;;;;;;;;;;4937637;29;20044;-56
2023/09/29 05:11:31;;;;;;;7.25;4.60;;;;;;;;;;4936374;29;20031;-56
2023/09/29 05:13:57;;;;;;;9.93;4.90;;;;;;;;;;4936821;29;20032;-59
2023/09/29 05:16:22;;;;;;;6.97;4.53;;;;;;;;;;4937339;29;20088;-58
2023/09/29 05:18:48;;;;;;;8.57;4.95;;;;;;;;;;4936566;29;20040;-58
2023/09/29 05:21:14;;;;;;;9.00;4.90;;;;;;;;;;4919527;29;20451;-58
2023/09/29 05:23:42;;;;;;;7.43;4.60;;;;;;;;;;4934607;29;20060;-57
2023/09/29 05:26:08;;;;;;;6.75;4.18;;;;;;;;;;4936536;29;20403;-58
2023/09/29 05:28:34;;;;;;;8.27;4.63;;;;;;;;;;4917829;29;20039;-57
2023/09/29 05:30:59;;;;;;;8.50;4.65;;;;;;;;;;4936823;29;20027;-58
2023/09/29 05:33:28;;;;;;;8.68;4.63;;;;;;;;;;4936925;29;20118;-58
2023/09/29 05:35:54;;;;;;;9.43;4.75;;;;;;;;;;4936773;29;20480;-56
2023/09/29 05:38:20;;;;;;;7.00;4.47;;;;;;;;;;4920905;29;20050;-59
2023/09/29 05:40:48;;;;;;;7.15;4.47;;;;;;;;;;4936207;29;20036;-58
2023/09/29 05:43:13;;;;;;;8.10;4.65;;;;;;;;;;4935859;29;20048;-58
2023/09/29 05:45:39;;;;;;;9.20;4.72;;;;;;;;;;4906832;29;20024;-58
2023/09/29 05:48:06;;;;;;;8.85;4.85;;;;;;;;;;4937145;29;20457;-57
2023/09/29 05:50:32;;;;;;;8.75;4.15;;;;;;;;;;4937073;29;20038;-57
2023/09/29 05:52:58;;;;;;;8.77;4.88;;;;;;;;;;4919999;29;20370;-58
2023/09/29 05:55:24;;;;;;;10.85;4.82;;;;;;;;;;4936887;29;20249;-58
2023/09/29 05:57:52;;;;;;;9.10;4.63;;;;;;;;;;4935826;29;20024;-58
2023/09/29 06:00:20;;;;;;;8.75;4.97;;;;;;;;;;4934514;29;20085;-58
2023/09/29 06:02:46;;;;;;;7.47;4.60;;;;;;;;;;4937238;29;20076;-58
2023/09/29 06:05:12;;;;;;;8.38;4.43;;;;;;;;;;4934594;29;20128;-58
2023/09/29 06:07:38;;;;;;;10.05;4.40;;;;;;;;;;4919725;29;20039;-56
2023/09/29 06:10:07;;;;;;;5.93;4.15;;;;;;;;;;4926380;29;20060;-59
2023/09/29 06:12:33;;;;;;;8.23;4.22;;;;;;;;;;4936615;29;20036;-59
2023/09/29 06:14:59;;;;;;;8.30;4.18;;;;;;;;;;4935836;29;20066;-59
2023/09/29 06:17:24;;;;;;;7.07;3.90;;;;;;;;;;4936689;29;20059;-58
2023/09/29 06:19:50;;;;;;;6.38;4.00;;;;;;;;;;4935591;29;20035;-58
2023/09/29 06:22:16;;;;;;;5.82;3.90;;;;;;;;;;4919334;29;20404;-59
2023/09/29 06:24:44;;;;;;;8.35;4.18;;;;;;;;;;4935559;29;20138;-58
2023/09/29 06:27:10;;;;;;;6.00;3.75;;;;;;;;;;4934309;29;20042;-58
2023/09/29 06:29:36;;;;;;;7.90;4.13;;;;;;;;;;4935267;29;20036;-58
2023/09/29 06:32:02;;;;;;;6.40;3.90;;;;;;;;;;4936164;29;20039;-59
2023/09/29 06:34:28;;;;;;;6.40;3.92;;;;;;;;;;4936540;29;20064;-57
2023/09/29 06:36:53;;;;;;;7.70;3.70;;;;;;;;;;4918564;29;20035;-59
2023/09/29 06:39:19;;;;;;;6.20;3.75;;;;;;;;;;4936145;29;20023;-59
2023/09/29 06:41:47;;;;;;;5.57;3.80;;;;;;;;;;4918271;29;20031;-59
2023/09/29 06:44:14;;;;;;;6.88;4.30;;;;;;;;;;4903619;29;20067;-60
2023/09/29 06:46:43;;;;;;;5.53;3.97;;;;;;;;;;4917076;29;20053;-57
2023/09/29 06:49:08;;;;;;;10.00;4.40;;;;;;;;;;4917302;29;20457;-60
2023/09/29 06:51:35;;;;;;;6.93;3.88;;;;;;;;;;4933025;29;20083;-60
2023/09/29 06:54:02;;;;;;;8.60;4.13;;;;;;;;;;4917516;29;20437;-59
2023/09/29 06:56:28;;;;;;;6.95;4.28;;;;;;;;;;4918238;29;20046;-60
2023/09/29 06:58:54;;;;;;;8.02;4.50;;;;;;;;;;4935010;29;20027;-59
2023/09/29 07:01:21;;;;;;;6.95;4.22;;;;;;;;;;4934476;29;20036;-57
2023/09/29 07:03:47;;;;;;;8.63;4.40;;;;;;;;;;4902138;29;20035;-59
2023/09/29 07:06:16;;;;;;;12.90;8.30;;;;;;;;;;4935741;29;20034;-60
2023/09/29 07:08:41;;;;;;;8.60;4.97;;;;;;;;;;4936442;29;20032;-52
2023/09/29 07:11:07;;;;;;;6.55;4.13;;;;;;;;;;4937739;29;20031;-52
2023/09/29 07:13:32;;;;;;;7.43;4.10;;;;;;;;;;4954222;28;20107;-53
2023/09/29 07:15:58;;;;;;;6.50;4.10;;;;;;;;;;4906048;29;20090;-51
2023/09/29 07:18:23;;;;;;;5.22;3.65;;;;;;;;;;4916450;29;20092;-51
2023/09/29 07:20:53;;;;;;;7.82;3.88;;;;;;;;;;4934121;29;20395;-54
2023/09/29 07:23:22;;;;;;;9.07;4.28;;;;;;;;;;4935988;29;20535;-54
2023/09/29 07:25:48;;;;;;;7.70;3.45;;;;;;;;;;4933478;29;20046;-54
2023/09/29 07:28:16;;;;;;;6.35;4.03;;;;;;;;;;4933103;29;20040;-52
2023/09/29 07:30:43;;;;;;;5.88;3.50;;;;;;;;;;4934852;29;20035;-55
2023/09/29 07:33:11;;;;;;;7.90;3.70;;;;;;;;;;4918280;29;20035;-51
2023/09/29 07:35:37;;;;;;;6.90;3.50;;;;;;;;;;4934700;29;20031;-50
2023/09/29 07:38:02;;;;;;;7.28;3.25;;;;;;;;;;4933101;29;20031;-53
2023/09/29 07:40:28;;;;;;;7.30;3.85;;;;;;;;;;4918175;29;20046;-54
2023/09/29 07:42:54;;;;;;;8.68;3.60;;;;;;;;;;4915783;29;20090;-52
2023/09/29 07:45:20;;;;;;;6.40;3.20;;;;;;;;;;4917644;29;20055;-55
2023/09/29 07:47:46;;;;;;;6.18;3.30;;;;;;;;;;4917126;29;20476;-55
2023/09/29 07:50:12;;;;;;;9.00;3.40;;;;;;;;;;4918025;29;20036;-53
2023/09/29 07:52:38;;;;;;;6.20;3.50;;;;;;;;;;4917603;29;20036;-56
2023/09/29 07:55:07;;;;;;;5.68;3.42;;;;;;;;;;4933828;29;20107;-56
2023/09/29 07:57:33;;;;;;;5.82;3.65;;;;;;;;;;4932935;29;20036;-56
2023/09/29 07:59:59;;;;;;;5.28;3.38;;;;;;;;;;4933405;29;20043;-55
2023/09/29 08:02:25;;;;;;;4.22;3.08;;;;;;;;;;4934685;29;20027;-55
2023/09/29 08:04:51;;;;;;;6.40;3.17;;;;;;;;;;4933914;29;20028;-56
2023/09/29 08:07:17;;;;;;;5.57;3.10;;;;;;;;;;4934199;29;20032;-55
2023/09/29 08:09:42;;;;;;;7.43;3.13;;;;;;;;;;4923322;29;20048;-54
2023/09/29 08:12:08;;;;;;;5.40;3.10;;;;;;;;;;4915555;29;20072;-55
2023/09/29 08:14:33;;;;;;;6.55;3.05;;;;;;;;;;4898917;29;20414;-53
2023/09/29 08:16:59;;;;;;;6.78;3.10;;;;;;;;;;4898065;29;20446;-53
2023/09/29 08:19:24;;;;;;;7.32;2.78;;;;;;;;;;4914877;29;20032;-52
2023/09/29 08:21:50;;;;;;;6.65;3.15;;;;;;;;;;4914034;29;20119;-52
2023/09/29 08:24:15;;;;;;;6.68;2.83;;;;;;;;;;4895730;29;20064;-53
2023/09/29 08:26:41;;;;;;;7.32;3.08;;;;;;;;;;4914135;29;20123;-56
2023/09/29 08:29:09;;;;;;;4.78;2.67;;;;;;;;;;4886498;29;20397;-53
2023/09/29 08:31:35;;;;;;;5.68;2.55;;;;;;;;;;4929334;29;20362;-54
2023/09/29 08:34:01;;;;;;;5.35;2.70;;;;;;;;;;4929443;29;20480;-53
2023/09/29 08:36:26;;;;;;;5.78;2.70;;;;;;;;;;4898211;29;20094;-52
2023/09/29 08:38:51;;;;;;;5.68;2.53;;;;;;;;;;4914575;29;20040;-57
2023/09/29 08:41:23;;;;;;;7.07;2.78;;;;;;;;;;4914256;29;20040;-54
2023/09/29 08:43:49;;;;;;;8.30;2.75;;;;;;;;;;4896464;29;20179;-53
2023/09/29 08:46:15;;;;;;;4.65;2.60;;;;;;;;;;4914946;29;20040;-54
2023/09/29 08:48:43;;;;;;;4.00;2.47;;;;;;;;;;4915328;29;20068;-50
2023/09/29 08:51:09;;;;;;;8.80;2.85;;;;;;;;;;4912749;29;20044;-55
2023/09/29 08:53:35;;;;;;;4.93;2.70;;;;;;;;;;4915621;29;20175;-55
2023/09/29 08:56:05;;;;;;;5.45;2.80;;;;;;;;;;4913299;29;20127;-54
2023/09/29 08:58:32;;;;;;;4.50;2.60;;;;;;;;;;4914940;29;20024;-55
2023/09/29 09:00:58;;;;;;;5.35;2.83;;;;;;;;;;4913976;29;20393;-55
2023/09/29 09:03:24;;;;;;;7.82;2.78;;;;;;;;;;4912628;29;20331;-55
2023/09/29 09:05:49;;;;;;;7.07;2.95;;;;;;;;;;4913977;29;20047;-61
2023/09/29 09:08:16;;;;;;;10.85;3.10;;;;;;;;;;4915265;29;20024;-60
2023/09/29 09:10:41;;;;;;;5.30;2.88;;;;;;;;;;4932854;29;20552;-60
2023/09/29 09:13:07;;;;;;;7.07;2.90;;;;;;;;;;4933085;29;20031;-60
2023/09/29 09:15:32;;;;;;;6.88;3.00;;;;;;;;;;4917110;29;20126;-60
2023/09/29 09:17:58;;;;;;;6.05;2.67;;;;;;;;;;4933301;29;20024;-60
2023/09/29 09:20:27;;;;;;;6.15;2.80;;;;;;;;;;4916255;29;20040;-60
2023/09/29 09:22:58;;;;;;;5.32;2.65;;;;;;;;;;4932709;29;20076;-60
2023/09/29 09:25:41;;;;;;;4.13;2.40;;;;;;;;;;4933963;29;20457;-60
2023/09/29 09:28:15;;;;;;;6.65;2.65;;;;;;;;;;4927570;29;20607;-60
2023/09/29 09:30:41;;;;;;;5.88;2.75;;;;;;;;;;4934186;29;20051;-59
2023/09/29 09:33:16;;;;;;;4.20;2.50;;;;;;;;;;4915492;29;20651;-59
2023/09/29 09:35:42;;;;;;;4.60;2.80;;;;;;;;;;4934440;29;20031;-59
2023/09/29 09:38:08;;;;;;;5.97;2.90;;;;;;;;;;4936432;29;20055;-59
2023/09/29 09:40:34;;;;;;;5.93;2.78;;;;;;;;;;4937017;29;20067;-60
2023/09/29 09:43:04;;;;;;;5.38;2.60;;;;;;;;;;4935719;29;20098;-59
2023/09/29 09:45:40;;;;;;;6.68;3.00;;;;;;;;;;4938774;29;20066;-60
2023/09/29 09:48:10;;;;;;;4.95;2.75;;;;;;;;;;4934266;29;20051;-60
2023/09/29 09:50:40;;;;;;;7.10;2.70;;;;;;;;;;4947291;29;20035;-60
2023/09/29 09:53:09;;;;;;;6.22;2.78;;;;;;;;;;4937778;29;20066;-60
2023/09/29 09:55:50;;;;;;;5.32;2.75;;;;;;;;;;4932181;29;20126;-60
2023/09/29 09:58:17;;;;;;;7.90;2.92;;;;;;;;;;4935488;29;20042;-60
2023/09/29 10:00:45;;;;;;;5.50;2.38;;;;;;;;;;4936334;29;20042;-60
2023/09/29 10:03:13;;;;;;;5.50;3.15;;;;;;;;;;4916228;29;20104;-60
2023/09/29 10:05:49;;;;;;;6.82;3.35;;;;;;;;;;4924274;29;20053;-59
2023/09/29 10:08:33;;;;;;;6.15;3.92;;;;;;;;;;4936247;29;20039;-60
2023/09/29 10:11:12;;;;;;;6.93;3.58;;;;;;;;;;4941026;29;20453;-60
2023/09/29 10:13:44;;;;;;;6.13;3.33;;;;;;;;;;4928061;29;20043;-60
2023/09/29 10:16:20;;;;;;;4.90;2.88;;;;;;;;;;4918880;29;20289;-60
2023/09/29 10:19:05;;;;;;;5.10;3.50;;;;;;;;;;4936297;29;20059;-59
2023/09/29 10:21:49;;;;;;;4.75;2.90;;;;;;;;;;4936281;29;20086;-60
2023/09/29 10:24:27;;;;;;;5.53;3.30;;;;;;;;;;4918891;29;20074;-60
2023/09/29 10:27:11;;;;;;;5.78;2.78;;;;;;;;;;4918692;29;20046;-60
2023/09/29 10:29:38;;;;;;;7.40;3.08;;;;;;;;;;4936473;29;20028;-60
2023/09/29 10:32:13;;;;;;;5.13;2.75;;;;;;;;;;4918601;29;20032;-59
2023/09/29 10:34:39;;;;;;;6.70;2.50;;;;;;;;;;4936445;29;20473;-60
2023/09/29 10:37:05;;;;;;;6.68;2.88;;;;;;;;;;4935171;29;20047;-60
2023/09/29 10:39:30;;;;;;;5.07;2.95;;;;;;;;;;4935481;29;20047;-59
2023/09/29 10:42:12;;;;;;;5.97;3.15;;;;;;;;;;4935509;29;20076;-59
2023/09/29 10:44:56;;;;;;;4.47;2.67;;;;;;;;;;4936162;29;20038;-59
2023/09/29 10:47:36;;;;;;;5.63;2.65;;;;;;;;;;4934294;29;20052;-60
2023/09/29 10:50:07;;;;;;;5.63;2.80;;;;;;;;;;4918179;29;20116;-60
2023/09/29 10:52:32;;;;;;;;;;;;;;;;;;4936571;29;20054;-60
2023/09/29 10:54:58;;;;;;;6.75;2.75;;;;;;;;;;4933227;29;19910;-60
2023/09/29 10:57:28;;;;;;;8.55;3.03;;;;;;;;;;4936225;29;20047;-60
2023/09/29 10:59:59;;;;;;;3.95;2.25;;;;;;;;;;4934123;29;20440;-60
2023/09/29 11:02:30;;;;;;;4.70;2.75;;;;;;;;;;4927642;29;20170;-60
2023/09/29 11:04:57;;;;;;;6.72;2.70;;;;;;;;;;4934781;29;20032;-59
2023/09/29 11:07:29;;;;;;;6.97;3.13;;;;;;;;;;4935177;29;20063;-59
2023/09/29 11:09:56;;;;;;;5.60;2.80;;;;;;;;;;4934889;29;20459;-60
2023/09/29 11:12:26;;;;;;;6.35;3.10;;;;;;;;;;4935806;29;20087;-60
2023/09/29 11:14:53;;;;;;;5.22;2.80;;;;;;;;;;4918918;29;20421;-60
2023/09/29 11:17:20;;;;;;;7.50;2.70;;;;;;;;;;4934730;29;20046;-60
2023/09/29 11:19:55;;;;;;;6.18;2.83;;;;;;;;;;4935322;29;20028;-60
2023/09/29 11:22:20;;;;;;;8.57;3.08;;;;;;;;;;4933419;29;20039;-59
2023/09/29 11:24:50;;;;;;;7.85;3.15;;;;;;;;;;4934012;29;20403;-61
2023/09/29 11:27:19;;;;;;;5.85;2.85;;;;;;;;;;4934277;29;20059;-60
2023/09/29 11:29:44;;;;;;;7.78;2.83;;;;;;;;;;4935165;29;20205;-59
2023/09/29 11:32:10;;;;;;;7.90;3.03;;;;;;;;;;4934632;29;20032;-59
2023/09/29 11:34:35;;;;;;;8.82;3.47;;;;;;;;;;4935457;29;20031;-59
2023/09/29 11:37:01;;;;;;;6.78;3.10;;;;;;;;;;4934068;29;20439;-59
2023/09/29 11:39:27;;;;;;;9.18;3.60;;;;;;;;;;4935011;29;20028;-60
2023/09/29 11:41:52;;;;;;;7.88;3.03;;;;;;;;;;4918045;29;20027;-58
2023/09/29 11:44:18;;;;;;;7.40;3.20;;;;;;;;;;4934385;29;20393;-58
2023/09/29 11:46:44;;;;;;;6.72;3.30;;;;;;;;;;4935077;29;20063;-59
2023/09/29 11:49:10;;;;;;;6.68;2.90;;;;;;;;;;4934635;29;20499;-58
2023/09/29 11:51:36;;;;;;;7.22;3.30;;;;;;;;;;4933119;29;20039;-58
2023/09/29 11:54:03;;;;;;;8.88;3.20;;;;;;;;;;4931581;29;20031;-59
2023/09/29 11:56:28;;;;;;;6.00;2.80;;;;;;;;;;4934785;29;20115;-59
2023/09/29 11:58:54;;;;;;;4.97;2.30;;;;;;;;;;4914277;29;20126;-59
2023/09/29 12:01:19;;;;;;;7.53;3.10;;;;;;;;;;4931927;29;20043;-59
2023/09/29 12:03:45;;;;;;;6.45;2.88;;;;;;;;;;4934494;29;20107;-59
2023/09/29 12:06:10;;;;;;;8.15;2.90;;;;;;;;;;4933003;29;20039;-59
2023/09/29 12:08:36;;;;;;;6.95;2.67;;;;;;;;;;4934336;29;20106;-58
2023/09/29 12:11:05;;;;;;;8.93;3.05;;;;;;;;;;4900863;29;20028;-61
2023/09/29 12:13:31;;;;;;;6.97;2.75;;;;;;;;;;4915875;29;20529;-59
2023/09/29 12:15:57;;;;;;;7.88;2.92;;;;;;;;;;4915379;29;20036;-59
2023/09/29 12:18:23;;;;;;;6.95;3.08;;;;;;;;;;4915419;29;20032;-61
2023/09/29 12:20:52;;;;;;;6.82;3.20;;;;;;;;;;4898127;29;20389;-60
2023/09/29 12:23:18;;;;;;;6.85;2.95;;;;;;;;;;4933583;29;20649;-60
2023/09/29 12:25:43;;;;;;;6.90;3.28;;;;;;;;;;4932863;29;20063;-60
2023/09/29 12:28:09;;;;;;;6.97;3.03;;;;;;;;;;4916871;29;20066;-60
2023/09/29 12:30:34;;;;;;;8.93;3.35;;;;;;;;;;4917480;29;20445;-59
2023/09/29 12:33:00;;;;;;;7.40;3.13;;;;;;;;;;4927917;29;20426;-59
2023/09/29 12:35:28;;;;;;;7.70;3.58;;;;;;;;;;4933396;29;20456;-60
2023/09/29 12:37:54;;;;;;;8.25;3.20;;;;;;;;;;4934640;29;20032;-60
2023/09/29 12:40:19;;;;;;;8.75;3.30;;;;;;;;;;4933478;29;20517;-60
2023/09/29 12:42:49;;;;;;;7.53;3.03;;;;;;;;;;4933331;29;20036;-59
2023/09/29 12:45:17;;;;;;;7.75;3.17;;;;;;;;;;4916121;29;20091;-60
2023/09/29 12:47:48;;;;;;;11.52;3.75;;;;;;;;;;4898709;29;20453;-59
2023/09/29 12:50:13;;;;;;;10.57;3.17;;;;;;;;;;4897226;29;20032;-59
2023/09/29 12:52:39;;;;;;;7.35;3.08;;;;;;;;;;4921096;29;20033;-60
2023/09/29 12:55:05;;;;;;;8.60;3.42;;;;;;;;;;4912093;29;20083;-60
2023/09/29 12:57:31;;;;;;;6.68;3.08;;;;;;;;;;4914863;29;20058;-60
2023/09/29 12:59:58;;;;;;;8.25;3.13;;;;;;;;;;4925067;29;20484;-60
2023/09/29 13:02:27;;;;;;;8.43;3.10;;;;;;;;;;4914647;29;20043;-61
2023/09/29 13:04:53;;;;;;;8.88;3.25;;;;;;;;;;4915747;29;20069;-61
2023/09/29 13:07:19;;;;;;;10.20;3.55;;;;;;;;;;4933337;29;20119;-59
2023/09/29 13:09:45;;;;;;;9.68;3.60;;;;;;;;;;4917599;29;20135;-59
2023/09/29 13:12:10;;;;;;;9.30;3.20;;;;;;;;;;4908196;29;20450;-59
2023/09/29 13:14:36;;;;;;;10.15;3.53;;;;;;;;;;4918953;29;20127;-59
2023/09/29 13:17:02;;;;;;;12.95;3.50;;;;;;;;;;4918134;29;20559;-60
2023/09/29 13:19:28;;;;;;;10.23;3.97;;;;;;;;;;4917841;29;20115;-59
2023/09/29 13:21:54;;;;;;;10.40;3.58;;;;;;;;;;4918655;29;20036;-58
2023/09/29 13:24:20;;;;;;;8.75;3.20;;;;;;;;;;4902713;29;20040;-61
2023/09/29 13:26:47;;;;;;;8.23;3.17;;;;;;;;;;4937302;29;20032;-59
2023/09/29 13:29:15;;;;;;;7.95;3.35;;;;;;;;;;4919867;29;20063;-59
2023/09/29 13:31:40;;;;;;;6.80;2.90;;;;;;;;;;4920343;29;20039;-59
2023/09/29 13:34:06;;;;;;;6.13;2.72;;;;;;;;;;4910986;29;20036;-58
2023/09/29 13:36:32;;;;;;;6.15;2.10;;;;;;;;;;4928687;29;20078;-58
2023/09/29 13:38:58;;;;;;;5.10;2.00;;;;;;;;;;4901112;29;20057;-56
2023/09/29 13:41:24;;;;;;;4.18;2.03;;;;;;;;;;4917572;29;20470;-57
2023/09/29 13:43:50;;;;;;;3.03;1.70;;;;;;;;;;4917610;29;20092;-56
2023/09/29 13:46:15;;;;;;;6.15;1.90;;;;;;;;;;4933326;29;20468;-57
2023/09/29 13:48:41;;;;;;;4.68;2.20;;;;;;;;;;4919933;29;20090;-63
2023/09/29 13:51:07;;;;;;;4.80;2.22;;;;;;;;;;4914409;29;20419;-55
2023/09/29 13:53:34;;;;;;;4.80;2.47;;;;;;;;;;4917866;29;20043;-56
2023/09/29 13:56:06;;;;;;;4.07;2.28;;;;;;;;;;4917978;29;20047;-58
2023/09/29 13:58:32;;;;;;;4.80;2.15;;;;;;;;;;4918183;29;20142;-57
2023/09/29 14:00:57;;;;;;;9.70;2.78;;;;;;;;;;4916777;29;20119;-59
2023/09/29 14:03:24;;;;;;;6.28;2.50;;;;;;;;;;4900282;29;20039;-59
2023/09/29 14:05:49;;;;;;;6.00;2.65;;;;;;;;;;4898537;29;20051;-60
2023/09/29 14:08:16;;;;;;;4.00;2.22;;;;;;;;;;4916273;29;20493;-59
2023/09/29 14:10:41;;;;;;;6.75;2.63;;;;;;;;;;4928357;29;20056;-59
2023/09/29 14:13:07;;;;;;;6.53;2.45;;;;;;;;;;4899499;29;20039;-59
2023/09/29 14:15:32;;;;;;;4.78;2.05;;;;;;;;;;4917576;29;20028;-60
2023/09/29 14:17:59;;;;;;;4.60;2.30;;;;;;;;;;4917483;29;20556;-60
2023/09/29 14:20:25;;;;;;;4.82;2.22;;;;;;;;;;4898696;29;20024;-59
2023/09/29 14:22:50;;;;;;;8.00;2.60;;;;;;;;;;4917032;29;20123;-59
2023/09/29 14:25:15;;;;;;;7.38;2.30;;;;;;;;;;4913736;29;20132;-60
2023/09/29 14:27:41;;;;;;;5.15;2.33;;;;;;;;;;4916746;29;20484;-59
2023/09/29 14:30:07;;;;;;;4.72;2.55;;;;;;;;;;4917284;29;20039;-60
2023/09/29 14:32:33;;;;;;;5.00;2.50;;;;;;;;;;4917675;29;20028;-59
2023/09/29 14:35:00;;;;;;;6.32;2.53;;;;;;;;;;4899852;29;20036;-59
2023/09/29 14:37:25;;;;;;;5.03;2.28;;;;;;;;;;4916002;29;20036;-59
2023/09/29 14:39:53;;;;;;;5.72;2.80;;;;;;;;;;4900240;29;20044;-60
2023/09/29 14:42:22;;;;;;;4.13;2.03;;;;;;;;;;4915996;29;20083;-60